CPA995 ZSFZ-VHHH
Flight info
| Callsign | CPA995 |
|---|---|
| Flight time | 1h 21m |
| Altitude | 25600 |
| Route | FQG A470 BEBEM/N0435F256 A470 DOTMI/N0423F240 V512 ABBEY |
| Aircraft | A21N/M-SDE3FGHIRWY/LB1 |
Departure
| Time | 2026-05-04 02:19 |
|---|---|
| Airport | Fuzhou Changle International Airport (ZSFZ) |
Arrival
| Time | 2026-05-04 03:40 |
|---|---|
| Airport | Hong Kong International Airport (VHHH) |
| Time | Latitude | Longitude | Altitude | Speed | Heading |
|---|---|---|---|---|---|
| 2026-05-04 01:58 | 25.93581 | 119.66935 | 55 ft | 0 kts | 118° |
| 2026-05-04 02:06 | 25.93582 | 119.66932 | 55 ft | 2 kts | 118° |
| 2026-05-04 02:07 | 25.93590 | 119.66917 | 55 ft | 2 kts | 118° |
| 2026-05-04 02:07 | 25.93597 | 119.66902 | 55 ft | 2 kts | 118° |
| 2026-05-04 02:07 | 25.93604 | 119.66888 | 55 ft | 2 kts | 118° |
| 2026-05-04 02:07 | 25.93613 | 119.66874 | 55 ft | 2 kts | 146° |
| 2026-05-04 02:08 | 25.93627 | 119.66867 | 55 ft | 2 kts | 169° |
| 2026-05-04 02:08 | 25.93642 | 119.66867 | 55 ft | 2 kts | 195° |
| 2026-05-04 02:08 | 25.93650 | 119.66870 | 55 ft | 1 kts | 210° |
| 2026-05-04 02:08 | 25.93654 | 119.66872 | 55 ft | 0 kts | 208° |
| 2026-05-04 02:10 | 25.93652 | 119.66872 | 55 ft | 0 kts | 208° |
| 2026-05-04 02:10 | 25.93642 | 119.66866 | 55 ft | 2 kts | 208° |
| 2026-05-04 02:11 | 25.93623 | 119.66856 | 55 ft | 3 kts | 206° |
| 2026-05-04 02:11 | 25.93596 | 119.66841 | 55 ft | 4 kts | 205° |
| 2026-05-04 02:11 | 25.93560 | 119.66822 | 55 ft | 6 kts | 205° |
| 2026-05-04 02:11 | 25.93518 | 119.66800 | 55 ft | 7 kts | 205° |
| 2026-05-04 02:12 | 25.93470 | 119.66771 | 55 ft | 8 kts | 208° |
| 2026-05-04 02:12 | 25.93415 | 119.66740 | 55 ft | 9 kts | 207° |
| 2026-05-04 02:12 | 25.93356 | 119.66703 | 55 ft | 10 kts | 223° |
| 2026-05-04 02:12 | 25.93341 | 119.66626 | 55 ft | 10 kts | 253° |
| 2026-05-04 02:13 | 25.93283 | 119.66574 | 55 ft | 11 kts | 207° |
| 2026-05-04 02:13 | 25.93209 | 119.66533 | 55 ft | 12 kts | 207° |
| 2026-05-04 02:13 | 25.93132 | 119.66488 | 55 ft | 12 kts | 219° |
| 2026-05-04 02:13 | 25.93129 | 119.66398 | 55 ft | 12 kts | 270° |
| 2026-05-04 02:14 | 25.93070 | 119.66333 | 55 ft | 13 kts | 204° |
| 2026-05-04 02:14 | 25.92989 | 119.66290 | 55 ft | 13 kts | 207° |
| 2026-05-04 02:14 | 25.92905 | 119.66244 | 55 ft | 13 kts | 206° |
| 2026-05-04 02:14 | 25.92818 | 119.66196 | 55 ft | 14 kts | 209° |
| 2026-05-04 02:15 | 25.92749 | 119.66149 | 55 ft | 9 kts | 212° |
| 2026-05-04 02:15 | 25.92686 | 119.66118 | 55 ft | 10 kts | 200° |
| 2026-05-04 02:15 | 25.92619 | 119.66082 | 55 ft | 11 kts | 207° |
| 2026-05-04 02:15 | 25.92548 | 119.66042 | 55 ft | 11 kts | 208° |
| 2026-05-04 02:16 | 25.92472 | 119.65999 | 55 ft | 12 kts | 207° |
| 2026-05-04 02:16 | 25.92394 | 119.65954 | 55 ft | 13 kts | 207° |
| 2026-05-04 02:16 | 25.92310 | 119.65907 | 55 ft | 13 kts | 207° |
| 2026-05-04 02:16 | 25.92224 | 119.65859 | 55 ft | 13 kts | 206° |
| 2026-05-04 02:17 | 25.92137 | 119.65810 | 55 ft | 14 kts | 208° |
| 2026-05-04 02:17 | 25.92080 | 119.65741 | 55 ft | 12 kts | 277° |
| 2026-05-04 02:17 | 25.92115 | 119.65652 | 55 ft | 12 kts | 299° |
| 2026-05-04 02:17 | 25.92186 | 119.65616 | 55 ft | 12 kts | 22° |
| 2026-05-04 02:18 | 25.92271 | 119.65663 | 55 ft | 22 kts | 27° |
| 2026-05-04 02:18 | 25.92660 | 119.65887 | 55 ft | 99 kts | 26° |
| 2026-05-04 02:18 | 25.93473 | 119.66335 | 56 ft | 160 kts | 29° |
| 2026-05-04 02:18 | 25.94547 | 119.66965 | 434 ft | 179 kts | 28° |
| 2026-05-04 02:19 | 25.95628 | 119.67530 | 1425 ft | 169 kts | 28° |
| 2026-05-04 02:19 | 25.96680 | 119.68047 | 2222 ft | 169 kts | 27° |
| 2026-05-04 02:19 | 25.97800 | 119.68603 | 2721 ft | 187 kts | 27° |
| 2026-05-04 02:19 | 25.99031 | 119.69218 | 3290 ft | 201 kts | 26° |
| 2026-05-04 02:20 | 26.00372 | 119.69885 | 3726 ft | 224 kts | 26° |
| 2026-05-04 02:20 | 26.01829 | 119.70608 | 4467 ft | 232 kts | 26° |
| 2026-05-04 02:20 | 26.03290 | 119.71349 | 5332 ft | 236 kts | 26° |
| 2026-05-04 02:20 | 26.04789 | 119.72128 | 6154 ft | 240 kts | 26° |
| 2026-05-04 02:21 | 26.06326 | 119.72943 | 6953 ft | 245 kts | 25° |
| 2026-05-04 02:21 | 26.07988 | 119.73415 | 7541 ft | 256 kts | 354° |
| 2026-05-04 02:21 | 26.09643 | 119.72650 | 8064 ft | 265 kts | 316° |
| 2026-05-04 02:21 | 26.10768 | 119.70979 | 8694 ft | 272 kts | 294° |
| 2026-05-04 02:22 | 26.11331 | 119.68969 | 9255 ft | 278 kts | 270° |
| 2026-05-04 02:22 | 26.10891 | 119.66905 | 9981 ft | 277 kts | 237° |
| 2026-05-04 02:22 | 26.09495 | 119.65479 | 10829 ft | 277 kts | 209° |
| 2026-05-04 02:22 | 26.07600 | 119.64943 | 11595 ft | 286 kts | 189° |
| 2026-05-04 02:23 | 26.05536 | 119.64931 | 12031 ft | 303 kts | 184° |
| 2026-05-04 02:23 | 26.03351 | 119.65022 | 12361 ft | 321 kts | 184° |
| 2026-05-04 02:23 | 26.01086 | 119.65095 | 12842 ft | 331 kts | 185° |
| 2026-05-04 02:23 | 25.98735 | 119.65142 | 13474 ft | 335 kts | 187° |
| 2026-05-04 02:24 | 25.96356 | 119.65160 | 13802 ft | 350 kts | 187° |
| 2026-05-04 02:24 | 25.93894 | 119.65089 | 14185 ft | 355 kts | 194° |
| 2026-05-04 02:24 | 25.91587 | 119.64248 | 14746 ft | 345 kts | 214° |
| 2026-05-04 02:24 | 25.89717 | 119.62617 | 15396 ft | 337 kts | 232° |
| 2026-05-04 02:25 | 25.88309 | 119.60541 | 16016 ft | 337 kts | 237° |
| 2026-05-04 02:25 | 25.86925 | 119.58405 | 16570 ft | 340 kts | 237° |
| 2026-05-04 02:25 | 25.85538 | 119.56271 | 17137 ft | 343 kts | 237° |
| 2026-05-04 02:25 | 25.84125 | 119.54099 | 17664 ft | 346 kts | 238° |
| 2026-05-04 02:26 | 25.82718 | 119.51932 | 18197 ft | 349 kts | 238° |
| 2026-05-04 02:26 | 25.81285 | 119.49724 | 18746 ft | 351 kts | 237° |
| 2026-05-04 02:26 | 25.79859 | 119.47533 | 19266 ft | 353 kts | 237° |
| 2026-05-04 02:26 | 25.78412 | 119.45311 | 19770 ft | 355 kts | 238° |
| 2026-05-04 02:27 | 25.76960 | 119.43080 | 20248 ft | 358 kts | 238° |
| 2026-05-04 02:27 | 25.75492 | 119.40833 | 20726 ft | 360 kts | 237° |
| 2026-05-04 02:27 | 25.73950 | 119.38657 | 21191 ft | 363 kts | 234° |
| 2026-05-04 02:27 | 25.72264 | 119.36523 | 21651 ft | 367 kts | 231° |
| 2026-05-04 02:28 | 25.70517 | 119.34461 | 22081 ft | 369 kts | 231° |
| 2026-05-04 02:28 | 25.68726 | 119.32353 | 22515 ft | 372 kts | 231° |
| 2026-05-04 02:28 | 25.66927 | 119.30234 | 22955 ft | 374 kts | 231° |
| 2026-05-04 02:28 | 25.65132 | 119.28123 | 23412 ft | 376 kts | 231° |
| 2026-05-04 02:29 | 25.63334 | 119.26008 | 23848 ft | 378 kts | 231° |
| 2026-05-04 02:29 | 25.61507 | 119.23861 | 24265 ft | 381 kts | 231° |
| 2026-05-04 02:29 | 25.59708 | 119.21748 | 24682 ft | 383 kts | 231° |
| 2026-05-04 02:29 | 25.57867 | 119.19587 | 25111 ft | 384 kts | 231° |
| 2026-05-04 02:30 | 25.56037 | 119.17442 | 25526 ft | 386 kts | 231° |
| 2026-05-04 02:30 | 25.54168 | 119.15250 | 25722 ft | 389 kts | 231° |
| 2026-05-04 02:30 | 25.52324 | 119.13089 | 25722 ft | 387 kts | 231° |
| 2026-05-04 02:30 | 25.50456 | 119.10906 | 25725 ft | 387 kts | 231° |
| 2026-05-04 02:31 | 25.48618 | 119.08752 | 25725 ft | 387 kts | 231° |
| 2026-05-04 02:31 | 25.46751 | 119.06568 | 25727 ft | 387 kts | 231° |
| 2026-05-04 02:31 | 25.44907 | 119.04409 | 25728 ft | 387 kts | 231° |
| 2026-05-04 02:31 | 25.43072 | 119.02265 | 25727 ft | 387 kts | 231° |
| 2026-05-04 02:32 | 25.41205 | 119.00082 | 25727 ft | 387 kts | 231° |
| 2026-05-04 02:32 | 25.39361 | 118.97928 | 25726 ft | 387 kts | 231° |
| 2026-05-04 02:32 | 25.37490 | 118.95744 | 25726 ft | 387 kts | 231° |
| 2026-05-04 02:32 | 25.35640 | 118.93585 | 25726 ft | 388 kts | 231° |
| 2026-05-04 02:33 | 25.33792 | 118.91426 | 25722 ft | 387 kts | 231° |
| 2026-05-04 02:33 | 25.31962 | 118.89233 | 25720 ft | 387 kts | 232° |
| 2026-05-04 02:33 | 25.30147 | 118.87032 | 25718 ft | 387 kts | 232° |
| 2026-05-04 02:33 | 25.28326 | 118.84822 | 25716 ft | 387 kts | 232° |
| 2026-05-04 02:34 | 25.26521 | 118.82635 | 25717 ft | 387 kts | 232° |
| 2026-05-04 02:34 | 25.24697 | 118.80425 | 25712 ft | 387 kts | 232° |
| 2026-05-04 02:34 | 25.22881 | 118.78225 | 25707 ft | 387 kts | 232° |
| 2026-05-04 02:34 | 25.21076 | 118.76042 | 25704 ft | 387 kts | 232° |
| 2026-05-04 02:35 | 25.19261 | 118.73846 | 25705 ft | 388 kts | 232° |
| 2026-05-04 02:35 | 25.17448 | 118.71657 | 25702 ft | 387 kts | 232° |
| 2026-05-04 02:35 | 25.15631 | 118.69463 | 25702 ft | 387 kts | 232° |
| 2026-05-04 02:35 | 25.13818 | 118.67272 | 25704 ft | 386 kts | 232° |
| 2026-05-04 02:36 | 25.11975 | 118.65050 | 25705 ft | 386 kts | 232° |
| 2026-05-04 02:36 | 25.10158 | 118.62862 | 25703 ft | 387 kts | 232° |
| 2026-05-04 02:36 | 25.08347 | 118.60707 | 25704 ft | 387 kts | 231° |
| 2026-05-04 02:36 | 25.06469 | 118.58549 | 25704 ft | 387 kts | 231° |
| 2026-05-04 02:37 | 25.04584 | 118.56401 | 25704 ft | 387 kts | 231° |
| 2026-05-04 02:37 | 25.02718 | 118.54269 | 25704 ft | 387 kts | 231° |
| 2026-05-04 02:37 | 25.00852 | 118.52135 | 25700 ft | 387 kts | 231° |
| 2026-05-04 02:37 | 24.98974 | 118.49985 | 25698 ft | 386 kts | 231° |
| 2026-05-04 02:38 | 24.97108 | 118.47846 | 25697 ft | 387 kts | 231° |
| 2026-05-04 02:38 | 24.95244 | 118.45712 | 25696 ft | 387 kts | 231° |
| 2026-05-04 02:38 | 24.93388 | 118.43584 | 25693 ft | 387 kts | 230° |
| 2026-05-04 02:38 | 24.91510 | 118.41434 | 25691 ft | 388 kts | 230° |
| 2026-05-04 02:39 | 24.89620 | 118.39274 | 25693 ft | 388 kts | 231° |
| 2026-05-04 02:39 | 24.87754 | 118.37140 | 25692 ft | 388 kts | 231° |
| 2026-05-04 02:39 | 24.85885 | 118.35001 | 25692 ft | 388 kts | 231° |
| 2026-05-04 02:39 | 24.83991 | 118.32836 | 25693 ft | 389 kts | 230° |
| 2026-05-04 02:40 | 24.82106 | 118.30681 | 25693 ft | 390 kts | 230° |
| 2026-05-04 02:40 | 24.80224 | 118.28528 | 25691 ft | 389 kts | 230° |
| 2026-05-04 02:40 | 24.78356 | 118.26392 | 25692 ft | 389 kts | 230° |
| 2026-05-04 02:40 | 24.76457 | 118.24223 | 25688 ft | 389 kts | 230° |
| 2026-05-04 02:41 | 24.74586 | 118.22089 | 25691 ft | 390 kts | 230° |
| 2026-05-04 02:41 | 24.72710 | 118.19951 | 25690 ft | 390 kts | 230° |
| 2026-05-04 02:41 | 24.70807 | 118.17780 | 25694 ft | 390 kts | 230° |
| 2026-05-04 02:41 | 24.68943 | 118.15659 | 25693 ft | 390 kts | 230° |
| 2026-05-04 02:42 | 24.67036 | 118.13493 | 25696 ft | 390 kts | 230° |
| 2026-05-04 02:42 | 24.65139 | 118.11340 | 25697 ft | 390 kts | 230° |
| 2026-05-04 02:42 | 24.63258 | 118.09205 | 25698 ft | 390 kts | 230° |
| 2026-05-04 02:42 | 24.61382 | 118.07071 | 25694 ft | 391 kts | 230° |
| 2026-05-04 02:43 | 24.59476 | 118.04906 | 25696 ft | 391 kts | 230° |
| 2026-05-04 02:43 | 24.57582 | 118.02758 | 25697 ft | 391 kts | 230° |
| 2026-05-04 02:43 | 24.55688 | 118.00589 | 25697 ft | 391 kts | 231° |
| 2026-05-04 02:43 | 24.53859 | 117.98395 | 25699 ft | 391 kts | 231° |
| 2026-05-04 02:44 | 24.52048 | 117.96198 | 25697 ft | 390 kts | 231° |
| 2026-05-04 02:44 | 24.50219 | 117.93978 | 25695 ft | 390 kts | 231° |
| 2026-05-04 02:44 | 24.48380 | 117.91749 | 25694 ft | 391 kts | 231° |
| 2026-05-04 02:44 | 24.46560 | 117.89546 | 25695 ft | 392 kts | 231° |
| 2026-05-04 02:45 | 24.44731 | 117.87334 | 25693 ft | 392 kts | 231° |
| 2026-05-04 02:45 | 24.42884 | 117.85104 | 25691 ft | 392 kts | 231° |
| 2026-05-04 02:45 | 24.41062 | 117.82908 | 25686 ft | 392 kts | 231° |
| 2026-05-04 02:45 | 24.39211 | 117.80673 | 25683 ft | 394 kts | 231° |
| 2026-05-04 02:46 | 24.37379 | 117.78465 | 25683 ft | 394 kts | 231° |
| 2026-05-04 02:46 | 24.35508 | 117.76213 | 25683 ft | 395 kts | 231° |
| 2026-05-04 02:46 | 24.33672 | 117.74004 | 25681 ft | 395 kts | 231° |
| 2026-05-04 02:46 | 24.31815 | 117.71768 | 25681 ft | 395 kts | 231° |
| 2026-05-04 02:47 | 24.29943 | 117.69516 | 25684 ft | 395 kts | 231° |
| 2026-05-04 02:47 | 24.28089 | 117.67287 | 25685 ft | 395 kts | 231° |
| 2026-05-04 02:47 | 24.26247 | 117.65073 | 25686 ft | 395 kts | 231° |
| 2026-05-04 02:47 | 24.24404 | 117.62856 | 25689 ft | 396 kts | 231° |
| 2026-05-04 02:48 | 24.22534 | 117.60611 | 25690 ft | 396 kts | 231° |
| 2026-05-04 02:48 | 24.20688 | 117.58393 | 25691 ft | 396 kts | 231° |
| 2026-05-04 02:48 | 24.18815 | 117.56146 | 25695 ft | 396 kts | 231° |
| 2026-05-04 02:48 | 24.16950 | 117.53912 | 25700 ft | 396 kts | 230° |
| 2026-05-04 02:49 | 24.15083 | 117.51688 | 25700 ft | 396 kts | 230° |
| 2026-05-04 02:49 | 24.13127 | 117.49541 | 25701 ft | 398 kts | 227° |
| 2026-05-04 02:49 | 24.11077 | 117.47491 | 25705 ft | 399 kts | 226° |
| 2026-05-04 02:49 | 24.09001 | 117.45453 | 25704 ft | 399 kts | 226° |
| 2026-05-04 02:50 | 24.06948 | 117.43434 | 25705 ft | 399 kts | 226° |
| 2026-05-04 02:50 | 24.04883 | 117.41407 | 25705 ft | 399 kts | 226° |
| 2026-05-04 02:50 | 24.02793 | 117.39355 | 25705 ft | 399 kts | 226° |
| 2026-05-04 02:50 | 24.00741 | 117.37344 | 25702 ft | 399 kts | 226° |
| 2026-05-04 02:51 | 23.98643 | 117.35287 | 25698 ft | 400 kts | 226° |
| 2026-05-04 02:51 | 23.96552 | 117.33238 | 25698 ft | 400 kts | 225° |
| 2026-05-04 02:51 | 23.94473 | 117.31203 | 25694 ft | 400 kts | 225° |
| 2026-05-04 02:51 | 23.92407 | 117.29181 | 25691 ft | 400 kts | 225° |
| 2026-05-04 02:52 | 23.90336 | 117.27156 | 25689 ft | 401 kts | 225° |
| 2026-05-04 02:52 | 23.88251 | 117.25116 | 25686 ft | 401 kts | 225° |
| 2026-05-04 02:52 | 23.86158 | 117.23069 | 25682 ft | 401 kts | 225° |
| 2026-05-04 02:52 | 23.84084 | 117.21041 | 25679 ft | 401 kts | 225° |
| 2026-05-04 02:53 | 23.81994 | 117.18999 | 25677 ft | 400 kts | 225° |
| 2026-05-04 02:53 | 23.79934 | 117.16990 | 25674 ft | 401 kts | 225° |
| 2026-05-04 02:53 | 23.77853 | 117.14958 | 25671 ft | 401 kts | 226° |
| 2026-05-04 02:53 | 23.75819 | 117.12843 | 25670 ft | 401 kts | 228° |
| 2026-05-04 02:54 | 23.73885 | 117.10663 | 25669 ft | 400 kts | 229° |
| 2026-05-04 02:54 | 23.71956 | 117.08469 | 25668 ft | 399 kts | 229° |
| 2026-05-04 02:54 | 23.70016 | 117.06262 | 25666 ft | 400 kts | 229° |
| 2026-05-04 02:54 | 23.68080 | 117.04059 | 25664 ft | 400 kts | 229° |
| 2026-05-04 02:55 | 23.64239 | 116.99686 | 25662 ft | 399 kts | 229° |
| 2026-05-04 02:55 | 23.62306 | 116.97489 | 25663 ft | 399 kts | 229° |
| 2026-05-04 02:55 | 23.60382 | 116.95300 | 25663 ft | 399 kts | 229° |
| 2026-05-04 02:56 | 23.58465 | 116.93119 | 25662 ft | 399 kts | 229° |
| 2026-05-04 02:56 | 23.56549 | 116.90942 | 25665 ft | 399 kts | 230° |
| 2026-05-04 02:56 | 23.54618 | 116.88747 | 25665 ft | 399 kts | 230° |
| 2026-05-04 02:56 | 23.52706 | 116.86575 | 25664 ft | 399 kts | 230° |
| 2026-05-04 02:57 | 23.50769 | 116.84375 | 25663 ft | 400 kts | 230° |
| 2026-05-04 02:57 | 23.48848 | 116.82194 | 25662 ft | 400 kts | 229° |
| 2026-05-04 02:57 | 23.46918 | 116.80007 | 25662 ft | 400 kts | 229° |
| 2026-05-04 02:57 | 23.44916 | 116.77864 | 25662 ft | 401 kts | 227° |
| 2026-05-04 02:58 | 23.42833 | 116.75849 | 25662 ft | 402 kts | 224° |
| 2026-05-04 02:58 | 23.40659 | 116.73949 | 25662 ft | 403 kts | 221° |
| 2026-05-04 02:58 | 23.38425 | 116.72087 | 25658 ft | 403 kts | 221° |
| 2026-05-04 02:58 | 23.36200 | 116.70233 | 25664 ft | 403 kts | 221° |
| 2026-05-04 02:59 | 23.33958 | 116.68366 | 25662 ft | 403 kts | 221° |
| 2026-05-04 02:59 | 23.31737 | 116.66517 | 25661 ft | 403 kts | 221° |
| 2026-05-04 02:59 | 23.29494 | 116.64652 | 25660 ft | 404 kts | 221° |
| 2026-05-04 02:59 | 23.27248 | 116.62786 | 25662 ft | 404 kts | 221° |
| 2026-05-04 03:00 | 23.25017 | 116.60934 | 25659 ft | 404 kts | 221° |
| 2026-05-04 03:00 | 23.22788 | 116.59084 | 25661 ft | 404 kts | 221° |
| 2026-05-04 03:00 | 23.20528 | 116.57210 | 25663 ft | 404 kts | 221° |
| 2026-05-04 03:00 | 23.18302 | 116.55365 | 25666 ft | 405 kts | 221° |
| 2026-05-04 03:01 | 23.16065 | 116.53511 | 25666 ft | 404 kts | 221° |
| 2026-05-04 03:01 | 23.13829 | 116.51660 | 25669 ft | 405 kts | 221° |
| 2026-05-04 03:01 | 23.11570 | 116.49789 | 25670 ft | 406 kts | 221° |
| 2026-05-04 03:01 | 23.09335 | 116.47939 | 25666 ft | 406 kts | 221° |
| 2026-05-04 03:02 | 23.07072 | 116.46066 | 25664 ft | 406 kts | 221° |
| 2026-05-04 03:02 | 23.04842 | 116.44221 | 25670 ft | 405 kts | 221° |
| 2026-05-04 03:02 | 23.02586 | 116.42354 | 25670 ft | 405 kts | 221° |
| 2026-05-04 03:02 | 23.00360 | 116.40513 | 25667 ft | 405 kts | 221° |
| 2026-05-04 03:03 | 22.98098 | 116.38644 | 25673 ft | 404 kts | 221° |
| 2026-05-04 03:03 | 22.95868 | 116.36804 | 25668 ft | 404 kts | 221° |
| 2026-05-04 03:03 | 22.93631 | 116.34954 | 25670 ft | 404 kts | 221° |
| 2026-05-04 03:03 | 22.91396 | 116.33101 | 25668 ft | 404 kts | 221° |
| 2026-05-04 03:04 | 22.89140 | 116.31229 | 25668 ft | 405 kts | 221° |
| 2026-05-04 03:04 | 22.86892 | 116.29359 | 25666 ft | 405 kts | 221° |
| 2026-05-04 03:04 | 22.84662 | 116.27509 | 25667 ft | 405 kts | 221° |
| 2026-05-04 03:04 | 22.82422 | 116.25647 | 25665 ft | 405 kts | 221° |
| 2026-05-04 03:05 | 22.80185 | 116.23789 | 25666 ft | 405 kts | 221° |
| 2026-05-04 03:05 | 22.77927 | 116.21916 | 25664 ft | 405 kts | 221° |
| 2026-05-04 03:05 | 22.75691 | 116.20061 | 25664 ft | 406 kts | 221° |
| 2026-05-04 03:05 | 22.73458 | 116.18210 | 25664 ft | 406 kts | 221° |
| 2026-05-04 03:06 | 22.71200 | 116.16344 | 25662 ft | 407 kts | 221° |
| 2026-05-04 03:06 | 22.68946 | 116.14503 | 25660 ft | 407 kts | 220° |
| 2026-05-04 03:06 | 22.66692 | 116.12671 | 25661 ft | 407 kts | 221° |
| 2026-05-04 03:06 | 22.64411 | 116.10817 | 25662 ft | 407 kts | 221° |
| 2026-05-04 03:07 | 22.62129 | 116.08960 | 25662 ft | 406 kts | 221° |
| 2026-05-04 03:07 | 22.59879 | 116.07129 | 25661 ft | 407 kts | 221° |
| 2026-05-04 03:07 | 22.57623 | 116.05292 | 25655 ft | 408 kts | 221° |
| 2026-05-04 03:07 | 22.55355 | 116.03445 | 25649 ft | 409 kts | 220° |
| 2026-05-04 03:08 | 22.53071 | 116.01586 | 25645 ft | 409 kts | 221° |
| 2026-05-04 03:08 | 22.50775 | 115.99719 | 25642 ft | 409 kts | 220° |
| 2026-05-04 03:08 | 22.48516 | 115.97879 | 25642 ft | 414 kts | 220° |
| 2026-05-04 03:08 | 22.46173 | 115.95970 | 25640 ft | 425 kts | 220° |
| 2026-05-04 03:09 | 22.43746 | 115.93995 | 25640 ft | 436 kts | 220° |
| 2026-05-04 03:09 | 22.41308 | 115.92012 | 25636 ft | 444 kts | 220° |
| 2026-05-04 03:09 | 22.38785 | 115.89964 | 25635 ft | 445 kts | 220° |
| 2026-05-04 03:09 | 22.36298 | 115.87950 | 25635 ft | 446 kts | 220° |
| 2026-05-04 03:10 | 22.33803 | 115.85915 | 25633 ft | 445 kts | 221° |
| 2026-05-04 03:10 | 22.31670 | 115.83546 | 25624 ft | 440 kts | 236° |
| 2026-05-04 03:10 | 22.30222 | 115.80667 | 25634 ft | 437 kts | 250° |
| 2026-05-04 03:10 | 22.29508 | 115.77468 | 25636 ft | 438 kts | 263° |
| 2026-05-04 03:11 | 22.29376 | 115.74173 | 25646 ft | 438 kts | 267° |
| 2026-05-04 03:11 | 22.29290 | 115.70895 | 25644 ft | 438 kts | 268° |
| 2026-05-04 03:11 | 22.29205 | 115.67639 | 25644 ft | 437 kts | 268° |
| 2026-05-04 03:11 | 22.29115 | 115.64327 | 25646 ft | 438 kts | 267° |
| 2026-05-04 03:12 | 22.29026 | 115.61056 | 25648 ft | 438 kts | 267° |
| 2026-05-04 03:12 | 22.28936 | 115.57774 | 25651 ft | 437 kts | 267° |
| 2026-05-04 03:12 | 22.28846 | 115.54515 | 25651 ft | 438 kts | 267° |
| 2026-05-04 03:12 | 22.28755 | 115.51245 | 25624 ft | 436 kts | 267° |
| 2026-05-04 03:13 | 22.28665 | 115.47958 | 25151 ft | 436 kts | 267° |
| 2026-05-04 03:13 | 22.28573 | 115.44682 | 23984 ft | 445 kts | 267° |
| 2026-05-04 03:13 | 22.28475 | 115.41297 | 22683 ft | 453 kts | 267° |
| 2026-05-04 03:13 | 22.28380 | 115.37949 | 21950 ft | 448 kts | 267° |
| 2026-05-04 03:14 | 22.28284 | 115.34602 | 21395 ft | 440 kts | 267° |
| 2026-05-04 03:14 | 22.28188 | 115.31323 | 20771 ft | 434 kts | 266° |
| 2026-05-04 03:14 | 22.28088 | 115.28050 | 20092 ft | 429 kts | 266° |
| 2026-05-04 03:14 | 22.27989 | 115.24840 | 19387 ft | 425 kts | 266° |
| 2026-05-04 03:15 | 22.27889 | 115.21613 | 18688 ft | 421 kts | 266° |
| 2026-05-04 03:15 | 22.27791 | 115.18483 | 18008 ft | 417 kts | 266° |
| 2026-05-04 03:15 | 22.27693 | 115.15353 | 17349 ft | 412 kts | 266° |
| 2026-05-04 03:15 | 22.27598 | 115.12303 | 16704 ft | 407 kts | 266° |
| 2026-05-04 03:16 | 22.27501 | 115.09243 | 16015 ft | 404 kts | 266° |
| 2026-05-04 03:16 | 22.27404 | 115.06225 | 15309 ft | 401 kts | 266° |
| 2026-05-04 03:16 | 22.27310 | 115.03256 | 14592 ft | 400 kts | 266° |
| 2026-05-04 03:16 | 22.27214 | 115.00258 | 13876 ft | 397 kts | 267° |
| 2026-05-04 03:17 | 22.27118 | 114.97282 | 13233 ft | 393 kts | 267° |
| 2026-05-04 03:17 | 22.27025 | 114.94360 | 12623 ft | 389 kts | 267° |
| 2026-05-04 03:17 | 22.26930 | 114.91480 | 12228 ft | 377 kts | 267° |
| 2026-05-04 03:17 | 22.26842 | 114.88747 | 11967 ft | 354 kts | 267° |
| 2026-05-04 03:18 | 22.26758 | 114.86159 | 11717 ft | 331 kts | 267° |
| 2026-05-04 03:18 | 22.26679 | 114.83735 | 11493 ft | 310 kts | 267° |
| 2026-05-04 03:18 | 22.26603 | 114.81471 | 11291 ft | 303 kts | 267° |
| 2026-05-04 03:18 | 22.26348 | 114.79199 | 11082 ft | 300 kts | 253° |
| 2026-05-04 03:19 | 22.25429 | 114.77188 | 11042 ft | 305 kts | 235° |
| 2026-05-04 03:19 | 22.23955 | 114.75486 | 11012 ft | 313 kts | 226° |
| 2026-05-04 03:19 | 22.22360 | 114.73856 | 10993 ft | 314 kts | 225° |
| 2026-05-04 03:19 | 22.20756 | 114.72224 | 10988 ft | 315 kts | 225° |
| 2026-05-04 03:20 | 22.19146 | 114.70579 | 10983 ft | 316 kts | 225° |
| 2026-05-04 03:20 | 22.17536 | 114.68930 | 10978 ft | 316 kts | 226° |
| 2026-05-04 03:20 | 22.15945 | 114.67300 | 10976 ft | 317 kts | 225° |
| 2026-05-04 03:20 | 22.14345 | 114.65659 | 10969 ft | 317 kts | 226° |
| 2026-05-04 03:21 | 22.12738 | 114.64008 | 10948 ft | 317 kts | 226° |
| 2026-05-04 03:21 | 22.11118 | 114.62344 | 10583 ft | 318 kts | 226° |
| 2026-05-04 03:21 | 22.09530 | 114.60715 | 10306 ft | 310 kts | 226° |
| 2026-05-04 03:21 | 22.08002 | 114.59150 | 10127 ft | 299 kts | 226° |
| 2026-05-04 03:22 | 22.06518 | 114.57629 | 10014 ft | 286 kts | 226° |
| 2026-05-04 03:22 | 22.05083 | 114.56157 | 9722 ft | 282 kts | 226° |
| 2026-05-04 03:22 | 22.03678 | 114.54714 | 9347 ft | 280 kts | 226° |
| 2026-05-04 03:22 | 22.02400 | 114.53122 | 8970 ft | 277 kts | 237° |
| 2026-05-04 03:23 | 22.01486 | 114.51291 | 8877 ft | 275 kts | 247° |
| 2026-05-04 03:23 | 22.00737 | 114.49369 | 8903 ft | 277 kts | 248° |
| 2026-05-04 03:23 | 22.00018 | 114.47466 | 8926 ft | 277 kts | 248° |
| 2026-05-04 03:23 | 21.99283 | 114.45521 | 8952 ft | 276 kts | 248° |
| 2026-05-04 03:24 | 21.98559 | 114.43614 | 8968 ft | 276 kts | 249° |
| 2026-05-04 03:24 | 21.97818 | 114.41670 | 8971 ft | 276 kts | 249° |
| 2026-05-04 03:24 | 21.97089 | 114.39764 | 8975 ft | 276 kts | 249° |
| 2026-05-04 03:24 | 21.96353 | 114.37839 | 8977 ft | 275 kts | 249° |
| 2026-05-04 03:25 | 21.95620 | 114.35922 | 8975 ft | 276 kts | 249° |
| 2026-05-04 03:25 | 21.94879 | 114.33985 | 8973 ft | 276 kts | 248° |
| 2026-05-04 03:25 | 21.94142 | 114.32061 | 8975 ft | 276 kts | 248° |
| 2026-05-04 03:25 | 21.93407 | 114.30143 | 8974 ft | 275 kts | 248° |
| 2026-05-04 03:26 | 21.92663 | 114.28203 | 8972 ft | 276 kts | 248° |
| 2026-05-04 03:26 | 21.91931 | 114.26295 | 8972 ft | 276 kts | 248° |
| 2026-05-04 03:26 | 21.91194 | 114.24377 | 8977 ft | 276 kts | 248° |
| 2026-05-04 03:26 | 21.90464 | 114.22482 | 8975 ft | 276 kts | 248° |
| 2026-05-04 03:27 | 21.89787 | 114.20528 | 8966 ft | 276 kts | 258° |
| 2026-05-04 03:27 | 21.89786 | 114.18461 | 8968 ft | 277 kts | 282° |
| 2026-05-04 03:27 | 21.90538 | 114.16544 | 8980 ft | 279 kts | 297° |
| 2026-05-04 03:27 | 21.91513 | 114.14698 | 8976 ft | 279 kts | 298° |
| 2026-05-04 03:28 | 21.92463 | 114.12903 | 8973 ft | 278 kts | 298° |
| 2026-05-04 03:28 | 21.93420 | 114.11083 | 8976 ft | 278 kts | 298° |
| 2026-05-04 03:28 | 21.94380 | 114.09245 | 8976 ft | 278 kts | 297° |
| 2026-05-04 03:28 | 21.95331 | 114.07414 | 8972 ft | 278 kts | 297° |
| 2026-05-04 03:29 | 21.96281 | 114.05582 | 8968 ft | 277 kts | 297° |
| 2026-05-04 03:29 | 21.97223 | 114.03761 | 8956 ft | 277 kts | 297° |
| 2026-05-04 03:29 | 21.98160 | 114.01947 | 8674 ft | 280 kts | 297° |
| 2026-05-04 03:29 | 21.99105 | 114.00114 | 8267 ft | 279 kts | 297° |
| 2026-05-04 03:30 | 22.00051 | 113.98280 | 7878 ft | 278 kts | 297° |
| 2026-05-04 03:30 | 22.00999 | 113.96446 | 7507 ft | 277 kts | 297° |
| 2026-05-04 03:30 | 22.01926 | 113.94647 | 7144 ft | 275 kts | 297° |
| 2026-05-04 03:30 | 22.02853 | 113.92850 | 6783 ft | 273 kts | 297° |
| 2026-05-04 03:31 | 22.03773 | 113.91064 | 6433 ft | 271 kts | 297° |
| 2026-05-04 03:31 | 22.04689 | 113.89281 | 6090 ft | 269 kts | 297° |
| 2026-05-04 03:31 | 22.05599 | 113.87511 | 5738 ft | 267 kts | 298° |
| 2026-05-04 03:31 | 22.06499 | 113.85762 | 5408 ft | 265 kts | 298° |
| 2026-05-04 03:32 | 22.07394 | 113.84022 | 5092 ft | 263 kts | 298° |
| 2026-05-04 03:32 | 22.08276 | 113.82304 | 4770 ft | 261 kts | 298° |
| 2026-05-04 03:32 | 22.09151 | 113.80600 | 4453 ft | 259 kts | 299° |
| 2026-05-04 03:32 | 22.10021 | 113.78915 | 4149 ft | 257 kts | 301° |
| 2026-05-04 03:33 | 22.11183 | 113.77436 | 3827 ft | 254 kts | 323° |
| 2026-05-04 03:33 | 22.12710 | 113.76489 | 3543 ft | 250 kts | 336° |
| 2026-05-04 03:33 | 22.14258 | 113.75734 | 3508 ft | 238 kts | 337° |
| 2026-05-04 03:33 | 22.15740 | 113.75024 | 3470 ft | 224 kts | 337° |
| 2026-05-04 03:34 | 22.17137 | 113.74345 | 3480 ft | 206 kts | 337° |
| 2026-05-04 03:34 | 22.18394 | 113.73727 | 3350 ft | 193 kts | 337° |
| 2026-05-04 03:34 | 22.19602 | 113.73127 | 3196 ft | 187 kts | 337° |
| 2026-05-04 03:34 | 22.20806 | 113.72545 | 3051 ft | 187 kts | 342° |
| 2026-05-04 03:35 | 22.22055 | 113.72544 | 2987 ft | 181 kts | 25° |
| 2026-05-04 03:35 | 22.23139 | 113.73277 | 3020 ft | 181 kts | 36° |
| 2026-05-04 03:35 | 22.24160 | 113.74086 | 3007 ft | 182 kts | 37° |
| 2026-05-04 03:35 | 22.25178 | 113.74873 | 2903 ft | 177 kts | 36° |
| 2026-05-04 03:36 | 22.26177 | 113.75675 | 2515 ft | 179 kts | 46° |
| 2026-05-04 03:36 | 22.26848 | 113.76803 | 2145 ft | 179 kts | 63° |
| 2026-05-04 03:36 | 22.27316 | 113.78038 | 1864 ft | 175 kts | 68° |
| 2026-05-04 03:36 | 22.27704 | 113.79230 | 1808 ft | 158 kts | 69° |
| 2026-05-04 03:37 | 22.28048 | 113.80324 | 1793 ft | 151 kts | 69° |
| 2026-05-04 03:37 | 22.28387 | 113.81390 | 1606 ft | 150 kts | 69° |
| 2026-05-04 03:37 | 22.28728 | 113.82452 | 1422 ft | 151 kts | 69° |
| 2026-05-04 03:37 | 22.29075 | 113.83530 | 1230 ft | 151 kts | 69° |
| 2026-05-04 03:38 | 22.29425 | 113.84620 | 1034 ft | 152 kts | 69° |
| 2026-05-04 03:38 | 22.29772 | 113.85699 | 840 ft | 151 kts | 69° |
| 2026-05-04 03:38 | 22.30121 | 113.86782 | 641 ft | 153 kts | 69° |
| 2026-05-04 03:38 | 22.30469 | 113.87858 | 457 ft | 152 kts | 70° |
| 2026-05-04 03:39 | 22.30810 | 113.88954 | 235 ft | 151 kts | 69° |
| 2026-05-04 03:39 | 22.31156 | 113.90012 | 63 ft | 148 kts | 70° |
| 2026-05-04 03:39 | 22.31487 | 113.91036 | 33 ft | 134 kts | 70° |
| 2026-05-04 03:39 | 22.31747 | 113.91836 | 32 ft | 88 kts | 67° |
| 2026-05-04 03:40 | 22.31914 | 113.92334 | 32 ft | 43 kts | 72° |
| 2026-05-04 03:40 | 22.31920 | 113.92619 | 32 ft | 30 kts | 100° |
| 2026-05-04 03:40 | 22.31885 | 113.92748 | 32 ft | 15 kts | 103° |
| 2026-05-04 03:40 | 22.31824 | 113.92834 | 32 ft | 14 kts | 157° |
| 2026-05-04 03:41 | 22.31739 | 113.92866 | 32 ft | 5 kts | 159° |
| 2026-05-04 03:41 | 22.31726 | 113.92897 | 32 ft | 5 kts | 82° |
| 2026-05-04 03:41 | 22.31733 | 113.92934 | 32 ft | 3 kts | 78° |
| 2026-05-04 03:41 | 22.31735 | 113.92948 | 32 ft | 0 kts | 79° |